Time;durP1;ratioP1;P1;durP2;ratioP2;P2;SDS_P1;SDS_P2;PMS_P1;PMS_P2;Temp;Humidity;BMP_temperature;BMP_pressure;BME280_temperature;BME280_humidity;BME280_pressure;Samples;Min_cycle;Max_cycle;Signal;HPM_P1;HPM_P2
2021/03/20 00:03:25;;;;;;;2.83;2.63;;;;;;;4.25;55.39;98603.81;8298994;28;20231;-63
2021/03/20 00:07:27;;;;;;;3.10;2.80;;;;;;;4.81;53.73;98601.56;8297226;28;20421;-63
2021/03/20 00:11:29;;;;;;;3.40;3.10;;;;;;;4.40;54.95;98610.53;8298278;28;20209;-63
2021/03/20 00:15:32;;;;;;;2.87;2.67;;;;;;;4.32;55.06;98612.31;8297319;28;20224;-63
2021/03/20 00:19:34;;;;;;;3.10;2.80;;;;;;;4.34;55.08;98615.72;8299018;28;20238;-63
2021/03/20 00:23:37;;;;;;;4.97;3.07;;;;;;;4.35;54.92;98611.44;8297641;28;20308;-63
2021/03/20 00:27:39;;;;;;;3.70;2.90;;;;;;;4.21;55.17;98606.44;8298640;28;20243;-63
2021/03/20 00:31:41;;;;;;;3.53;3.20;;;;;;;4.27;55.00;98602.09;8296725;28;20212;-63
2021/03/20 00:35:44;;;;;;;3.60;3.20;;;;;;;4.33;54.88;98595.22;8297173;28;20672;-63
2021/03/20 00:39:46;;;;;;;3.47;3.17;;;;;;;4.20;54.64;98595.31;8297923;28;20530;-63
2021/03/20 00:43:48;;;;;;;3.60;3.30;;;;;;;4.27;54.66;98596.97;8297568;28;20236;-63
2021/03/20 00:47:50;;;;;;;3.53;3.23;;;;;;;3.86;55.42;98604.97;8298561;28;20208;-63
2021/03/20 00:51:53;;;;;;;4.53;3.70;;;;;;;4.04;54.77;98607.41;8297053;28;20206;-63
2021/03/20 00:55:55;;;;;;;3.90;3.60;;;;;;;4.02;54.84;98601.47;8297458;28;20263;-63
2021/03/20 00:59:57;;;;;;;4.07;3.67;;;;;;;4.13;54.74;98608.19;8297298;28;20240;-63
2021/03/20 01:03:59;;;;;;;4.40;4.00;;;;;;;4.04;54.78;98606.56;8297148;28;20622;-63
2021/03/20 01:08:02;;;;;;;6.67;4.00;;;;;;;3.77;54.59;98613.59;8296337;28;20235;-63
2021/03/20 01:12:04;;;;;;;4.13;3.70;;;;;;;3.76;53.09;98611.88;8295199;28;20288;-65
2021/03/20 01:16:07;;;;;;;5.63;3.80;;;;;;;3.75;51.81;98617.88;8296522;28;20213;-64
2021/03/20 01:20:11;;;;;;;4.17;3.70;;;;;;;3.79;51.90;98614.44;8294938;28;20320;-65
2021/03/20 01:24:14;;;;;;;4.03;3.63;;;;;;;3.79;51.32;98622.13;8265335;28;20565;-64
2021/03/20 01:28:15;;;;;;;4.67;3.70;;;;;;;3.63;50.92;98623.91;8264008;28;20212;-64
2021/03/20 01:32:17;;;;;;;4.03;3.50;;;;;;;3.55;50.65;98623.13;8285755;28;20214;-65
2021/03/20 01:36:19;;;;;;;4.07;3.60;;;;;;;3.52;49.98;98618.00;8264935;28;20221;-65
2021/03/20 01:40:25;;;;;;;4.07;3.67;;;;;;;3.59;50.89;98624.78;8264791;28;20246;-64
2021/03/20 01:44:27;;;;;;;3.97;3.57;;;;;;;3.52;50.72;98625.69;8267730;28;20657;-64
2021/03/20 01:48:35;;;;;;;4.10;3.47;;;;;;;3.53;50.26;98625.69;8297609;28;20622;-64
2021/03/20 01:52:37;;;;;;;3.93;3.50;;;;;;;3.43;49.50;98613.81;8297656;28;20541;-64
2021/03/20 01:56:43;;;;;;;4.10;3.70;;;;;;;3.40;49.12;98618.09;8296622;28;20540;-64
2021/03/20 02:00:46;;;;;;;3.90;3.50;;;;;;;3.30;49.35;98630.09;8296042;28;20193;-64
2021/03/20 02:04:48;;;;;;;5.07;3.80;;;;;;;3.33;48.82;98632.59;8295093;28;20228;-64
2021/03/20 02:08:52;;;;;;;3.83;3.33;;;;;;;3.27;48.39;98637.75;8285766;28;20522;-65
2021/03/20 02:12:57;;;;;;;6.70;4.10;;;;;;;3.30;48.20;98641.16;8296070;28;20662;-65
2021/03/20 02:17:03;;;;;;;5.30;3.60;;;;;;;3.16;48.02;98644.63;8296306;28;20594;-64
2021/03/20 02:21:12;;;;;;;4.60;3.53;;;;;;;3.13;47.92;98646.34;8301899;28;20622;-65
2021/03/20 02:25:51;;;;;;;4.23;3.53;;;;;;;3.09;48.40;98646.38;8301671;28;20256;-65
2021/03/20 02:30:43;;;;;;;3.60;3.30;;;;;;;3.04;47.82;98643.81;8268916;28;20696;-65
2021/03/20 02:34:51;;;;;;;7.27;3.40;;;;;;;3.08;47.49;98654.91;8301307;28;20600;-65
2021/03/20 02:38:56;;;;;;;5.37;3.23;;;;;;;2.86;47.26;98657.53;8300637;28;20241;-65
2021/03/20 02:43:03;;;;;;;3.97;2.80;;;;;;;2.71;46.19;98660.13;8300556;28;20233;-65
2021/03/20 02:47:07;;;;;;;4.73;3.10;;;;;;;2.68;46.15;98665.22;8300278;28;20277;-65
2021/03/20 02:51:12;;;;;;;4.50;3.13;;;;;;;2.62;45.61;98658.41;8301155;28;20551;-65
2021/03/20 02:55:19;;;;;;;5.13;3.10;;;;;;;2.76;45.46;98660.97;8300140;28;20205;-65
2021/03/20 02:59:24;;;;;;;6.13;2.90;;;;;;;2.56;45.43;98660.13;8300738;28;20264;-65
2021/03/20 03:03:28;;;;;;;4.70;2.97;;;;;;;2.62;45.41;98657.56;8300964;28;20692;-65
2021/03/20 03:07:36;;;;;;;6.17;2.93;;;;;;;2.71;45.63;98662.69;8299699;28;20194;-65
2021/03/20 03:11:43;;;;;;;3.57;2.60;;;;;;;2.69;45.18;98665.22;8300178;28;20246;-65
2021/03/20 03:15:49;;;;;;;4.50;2.60;;;;;;;2.66;45.03;98665.22;8299554;28;20193;-65
2021/03/20 03:19:54;;;;;;;5.83;3.03;;;;;;;2.67;44.97;98653.31;8299861;28;20197;-64
2021/03/20 03:23:57;;;;;;;3.30;2.70;;;;;;;2.69;45.35;98670.34;8299195;28;20240;-65
2021/03/20 03:28:01;;;;;;;3.80;2.93;;;;;;;2.65;45.33;98667.81;8299184;28;20209;-65
2021/03/20 03:32:07;;;;;;;4.97;2.90;;;;;;;2.64;44.91;98668.66;8298237;28;20216;-65
2021/03/20 03:36:12;;;;;;;3.93;2.60;;;;;;;2.76;45.68;98670.31;8299192;28;20201;-65
2021/03/20 03:40:19;;;;;;;3.73;2.83;;;;;;;2.59;44.96;98675.47;8297830;28;20248;-65
2021/03/20 03:44:21;;;;;;;4.43;2.77;;;;;;;2.67;45.03;98681.44;8298227;28;20217;-65
2021/03/20 03:48:25;;;;;;;4.90;2.87;;;;;;;2.59;45.17;98680.56;8298917;28;20679;-65
2021/03/20 03:52:27;;;;;;;7.80;2.70;;;;;;;2.52;45.26;98675.47;8298863;28;20205;-65
2021/03/20 03:56:53;;;;;;;3.97;2.53;;;;;;;2.46;45.39;98674.63;8298625;28;20224;-65
2021/03/20 04:00:58;;;;;;;3.37;2.60;;;;;;;2.59;45.58;98683.13;8298577;28;20268;-65
2021/03/20 04:05:03;;;;;;;5.10;2.73;;;;;;;2.66;46.23;98688.25;8297942;28;20700;-65
2021/03/20 04:09:09;;;;;;;6.83;2.83;;;;;;;2.53;45.38;98689.09;8298368;28;20216;-65
2021/03/20 04:13:24;;;;;;;6.90;2.70;;;;;;;2.43;45.03;98692.53;8298174;28;20296;-65
2021/03/20 04:17:32;;;;;;;4.37;2.87;;;;;;;2.31;45.54;98701.91;8297481;28;20209;-65
2021/03/20 04:21:39;;;;;;;5.63;2.80;;;;;;;2.37;45.82;98698.50;8297607;28;20571;-65
2021/03/20 04:25:45;;;;;;;5.17;2.40;;;;;;;2.37;45.23;98701.03;8297274;28;20221;-65
2021/03/20 04:29:51;;;;;;;4.23;2.60;;;;;;;2.38;45.37;98689.09;8297264;28;20193;-65
2021/03/20 04:34:00;;;;;;;4.73;2.70;;;;;;;2.27;45.74;98694.25;8297582;28;20226;-65
2021/03/20 04:38:03;;;;;;;3.53;2.40;;;;;;;2.36;45.59;98689.09;8296921;28;20225;-65
2021/03/20 04:42:05;;;;;;;5.97;2.63;;;;;;;2.30;45.11;98689.97;8297541;28;20551;-65
2021/03/20 04:46:14;;;;;;;4.17;2.37;;;;;;;2.21;45.53;98697.63;8297577;28;20257;-65
2021/03/20 04:50:20;;;;;;;3.47;2.47;;;;;;;2.21;45.52;98705.31;8297473;28;20547;-65
2021/03/20 04:54:22;;;;;;;6.50;3.00;;;;;;;2.22;45.81;98695.94;8265014;28;20221;-65
2021/03/20 04:58:33;;;;;;;4.33;2.80;;;;;;;2.15;45.97;98697.59;8264172;28;20217;-65
2021/03/20 05:02:40;;;;;;;4.63;2.83;;;;;;;2.21;46.41;98699.31;8264198;28;20190;-65
2021/03/20 05:06:43;;;;;;;7.50;2.90;;;;;;;2.10;46.17;98702.72;8263226;28;20260;-65
2021/03/20 05:10:49;;;;;;;6.63;2.90;;;;;;;2.15;46.23;98706.16;8263273;28;20210;-65
2021/03/20 05:14:54;;;;;;;4.80;2.33;;;;;;;2.10;46.18;98702.72;8263052;28;20194;-65
2021/03/20 05:18:57;;;;;;;5.67;3.00;;;;;;;2.29;46.47;98707.88;8272740;28;20223;-65
2021/03/20 05:22:59;;;;;;;4.67;2.40;;;;;;;2.19;45.89;98711.25;8295192;28;20204;-65
2021/03/20 05:27:01;;;;;;;4.13;3.03;;;;;;;2.02;45.81;98722.31;8294830;28;20205;-65
2021/03/20 05:31:04;;;;;;;5.23;2.70;;;;;;;2.38;45.20;98736.00;8296651;28;20245;-65
2021/03/20 05:35:12;;;;;;;6.77;3.10;;;;;;;3.10;43.51;98746.19;8296661;28;20208;-66
2021/03/20 05:39:14;;;;;;;5.83;3.07;;;;;;;3.35;43.06;98752.94;8297259;28;20689;-65
2021/03/20 05:43:28;;;;;;;4.73;2.70;;;;;;;2.69;43.70;98744.50;8296640;28;20608;-65
2021/03/20 05:47:36;;;;;;;6.87;2.87;;;;;;;2.83;43.37;98753.88;8296754;28;20200;-65
2021/03/20 05:52:20;;;;;;;4.73;3.10;;;;;;;3.16;42.19;98759.81;8296597;28;20633;-65
2021/03/20 05:56:27;;;;;;;6.40;3.73;;;;;;;3.52;41.37;98769.09;8269659;28;20210;-65
2021/03/20 06:00:37;;;;;;;6.10;3.20;;;;;;;3.84;41.45;98775.81;8270139;28;20622;-65
2021/03/20 06:04:41;;;;;;;4.90;3.10;;;;;;;4.40;40.38;98779.81;8269542;28;20329;-65
2021/03/20 06:08:54;;;;;;;4.70;3.10;;;;;;;4.45;39.49;98780.59;8270036;28;20256;-65
2021/03/20 06:13:24;;;;;;;4.87;3.60;;;;;;;4.64;38.89;98790.75;8269474;28;20190;-66
2021/03/20 06:17:37;;;;;;;6.00;3.47;;;;;;;4.76;38.43;98793.25;8257593;28;20252;-66
2021/03/20 06:21:48;;;;;;;5.87;3.07;;;;;;;5.26;38.10;98783.38;8302128;28;20687;-65
2021/03/20 06:26:00;;;;;;;5.97;3.10;;;;;;;5.38;37.15;98790.09;8301388;28;20224;-66
2021/03/20 06:30:06;;;;;;;6.53;3.30;;;;;;;5.58;37.04;98795.03;8302015;28;20193;-65
2021/03/20 06:34:14;;;;;;;8.20;3.67;;;;;;;5.90;36.45;98798.94;8302385;28;20556;-65
2021/03/20 06:38:22;;;;;;;5.03;3.17;;;;;;;5.54;37.30;98799.38;8301544;28;20256;-65
2021/03/20 06:42:28;;;;;;;5.80;3.03;;;;;;;5.74;36.48;98794.00;8301671;28;20197;-65
2021/03/20 06:46:34;;;;;;;5.43;3.07;;;;;;;6.17;35.93;98795.19;8301402;28;20322;-65
2021/03/20 06:50:39;;;;;;;6.33;3.17;;;;;;;6.51;35.50;98813.63;8301259;28;20205;-65
2021/03/20 06:54:41;;;;;;;6.90;2.97;;;;;;;6.60;35.11;98804.91;8300579;28;20212;-65
2021/03/20 06:58:44;;;;;;;4.73;2.93;;;;;;;6.63;34.79;98816.00;8300826;28;20653;-66
2021/03/20 07:02:54;;;;;;;5.83;2.97;;;;;;;6.74;34.26;98817.56;8300005;28;20209;-65
2021/03/20 07:07:07;;;;;;;4.77;3.03;;;;;;;6.76;34.64;98813.22;8298300;28;20290;-65
2021/03/20 07:11:19;;;;;;;5.47;2.70;;;;;;;7.28;33.98;98814.13;8300840;28;20221;-65
2021/03/20 07:15:42;;;;;;;6.37;3.27;;;;;;;7.02;33.68;98828.28;8299370;28;20550;-65
2021/03/20 07:19:52;;;;;;;4.10;3.00;;;;;;;6.99;34.36;98836.06;8300374;28;20224;-65
2021/03/20 07:23:57;;;;;;;5.53;3.07;;;;;;;6.80;34.66;98838.91;8299493;28;20212;-65
2021/03/20 07:28:07;;;;;;;9.33;3.03;;;;;;;6.73;34.09;98839.88;8300055;28;20212;-65
2021/03/20 07:32:13;;;;;;;4.80;2.70;;;;;;;5.96;35.56;98852.88;8300753;28;20531;-64
2021/03/20 07:36:21;;;;;;;5.63;2.80;;;;;;;6.87;34.66;98857.69;8299749;28;20237;-64
2021/03/20 07:40:31;;;;;;;4.43;2.83;;;;;;;7.08;34.42;98856.50;8300576;28;20310;-65
2021/03/20 07:44:48;;;;;;;6.63;2.90;;;;;;;7.43;33.04;98858.50;8299141;28;20214;-65
2021/03/20 07:48:59;;;;;;;4.63;2.83;;;;;;;7.51;33.48;98863.53;8300353;28;20194;-65
2021/03/20 07:53:05;;;;;;;4.03;2.63;;;;;;;7.94;32.85;98869.59;8297601;28;20186;-65
2021/03/20 07:57:10;;;;;;;5.80;2.80;;;;;;;7.34;33.60;98870.69;8300870;28;20263;-65
2021/03/20 08:01:15;;;;;;;4.07;2.57;;;;;;;7.45;32.28;98876.53;8299090;28;20209;-65
2021/03/20 08:05:32;;;;;;;3.60;2.50;;;;;;;7.71;32.40;98878.66;8297282;28;20217;-64
2021/03/20 08:09:34;;;;;;;5.00;2.33;;;;;;;7.79;31.76;98888.81;8298508;28;20205;-64
2021/03/20 08:13:43;;;;;;;3.97;2.60;;;;;;;8.27;31.69;98895.63;8297742;28;20224;-65
2021/03/20 08:17:45;;;;;;;5.77;2.70;;;;;;;8.33;31.46;98895.50;8298406;28;20189;-65
2021/03/20 08:22:07;;;;;;;4.37;2.27;;;;;;;9.04;30.16;98894.00;8297623;28;20708;-65
2021/03/20 08:26:18;;;;;;;3.40;2.37;;;;;;;7.13;31.83;98890.78;8297355;28;20213;-66
2021/03/20 08:30:45;;;;;;;6.90;2.43;;;;;;;7.96;31.04;98891.09;8297650;28;20209;-65
2021/03/20 08:34:55;;;;;;;8.60;2.50;;;;;;;8.22;30.92;98894.00;8293081;28;20204;-65
2021/03/20 08:39:08;;;;;;;5.37;2.67;;;;;;;8.32;29.34;98891.22;8297173;28;20248;-65
2021/03/20 08:43:45;;;;;;;3.63;2.40;;;;;;;7.98;30.09;98897.91;8296732;28;20228;-65
2021/03/20 08:48:04;;;;;;;3.93;2.53;;;;;;;7.11;32.82;98900.25;8296526;28;20194;-65
2021/03/20 08:52:19;;;;;;;6.07;3.20;;;;;;;5.75;33.20;98902.78;8293426;28;20513;-65
2021/03/20 08:56:38;;;;;;;4.37;2.37;;;;;;;7.52;31.86;98885.84;8297762;28;20197;-65
2021/03/20 09:00:46;;;;;;;5.70;2.90;;;;;;;8.96;30.12;98886.41;8296658;28;20625;-64
2021/03/20 09:04:50;;;;;;;3.60;2.80;;;;;;;8.22;30.77;98894.00;8296388;28;20217;-65
2021/03/20 09:08:54;;;;;;;6.67;2.93;;;;;;;8.82;29.90;98891.91;8297117;28;20197;-65
2021/03/20 09:13:05;;;;;;;5.20;2.90;;;;;;;8.94;28.56;98883.88;8296605;28;20205;-65
2021/03/20 09:17:20;;;;;;;5.63;3.10;;;;;;;9.50;29.12;98892.88;8296625;28;20224;-65
2021/03/20 09:21:22;;;;;;;4.47;2.70;;;;;;;10.33;27.98;98888.94;8296478;28;20588;-64
2021/03/20 09:25:30;;;;;;;4.33;2.70;;;;;;;10.14;25.90;98885.16;8297507;28;20597;-64
2021/03/20 09:29:34;;;;;;;6.57;2.80;;;;;;;8.47;26.41;98884.91;8300616;28;20508;-65
2021/03/20 09:33:40;;;;;;;5.50;2.60;;;;;;;9.13;26.03;98883.44;8303111;28;20606;-65
2021/03/20 09:37:48;;;;;;;5.40;2.50;;;;;;;8.59;26.85;98884.69;8302972;28;20683;-64
2021/03/20 09:41:50;;;;;;;6.10;2.77;;;;;;;10.20;27.87;98882.38;8305409;28;20650;-65
2021/03/20 09:46:40;;;;;;;5.27;2.40;;;;;;;10.67;25.70;98881.94;8300987;28;20232;-65
2021/03/20 09:50:44;;;;;;;5.53;2.80;;;;;;;10.19;24.10;98883.28;8191765;29;20324;-65
2021/03/20 09:54:45;;;;;;;3.40;2.60;;;;;;;10.64;26.55;98901.03;8249342;28;20582;-65
2021/03/20 09:58:47;;;;;;;5.60;2.90;;;;;;;11.15;24.34;98899.44;8301648;28;20224;-65
2021/03/20 10:02:53;;;;;;;4.07;2.73;;;;;;;11.38;24.48;98898.69;8303460;28;20220;-65
2021/03/20 10:07:30;;;;;;;3.97;2.50;;;;;;;11.18;21.40;98889.00;8301606;28;20213;-65
2021/03/20 10:11:36;;;;;;;4.43;2.40;;;;;;;11.55;22.86;98883.41;8303105;28;20193;-65
2021/03/20 10:15:53;;;;;;;6.17;2.70;;;;;;;11.35;23.00;98894.47;8302135;28;20197;-65
2021/03/20 10:19:56;;;;;;;4.83;2.70;;;;;;;9.76;23.44;98902.56;8303527;28;20198;-65
2021/03/20 10:24:19;;;;;;;4.97;2.60;;;;;;;9.77;24.11;98899.09;8301210;28;20626;-65
2021/03/20 10:28:29;;;;;;;5.07;2.53;;;;;;;9.50;23.48;98895.47;8302159;28;20193;-65
2021/03/20 10:32:30;;;;;;;4.10;2.70;;;;;;;8.50;24.80;98914.09;8302538;28;20220;-65
2021/03/20 10:36:36;;;;;;;3.87;2.40;;;;;;;10.04;24.46;98894.06;8303041;28;20220;-65
2021/03/20 10:40:42;;;;;;;2.80;2.20;;;;;;;10.35;23.88;98894.91;8301344;28;20233;-65
2021/03/20 10:44:46;;;;;;;3.47;2.27;;;;;;;11.27;23.13;98885.22;8301477;28;20247;-65
2021/03/20 10:48:50;;;;;;;4.30;2.67;;;;;;;11.63;22.76;98888.38;8301601;28;20532;-65
2021/03/20 10:52:53;;;;;;;3.37;2.07;;;;;;;10.98;23.16;98888.78;8299563;28;20205;-63
2021/03/20 10:57:01;;;;;;;3.20;2.07;;;;;;;11.07;22.99;98885.88;8299801;28;20262;-63
2021/03/20 11:01:04;;;;;;;2.90;1.87;;;;;;;11.80;22.34;98879.16;8299573;28;20614;-64
2021/03/20 11:05:14;;;;;;;3.43;2.40;;;;;;;9.52;22.24;98866.09;8299566;28;20220;-64
2021/03/20 11:09:21;;;;;;;3.23;2.00;;;;;;;10.31;23.76;98872.59;8299692;28;20190;-64
2021/03/20 11:13:34;;;;;;;4.90;2.07;;;;;;;10.23;23.51;98869.38;8299734;28;20202;-64
2021/03/20 11:17:37;;;;;;;3.10;2.03;;;;;;;9.61;25.13;98867.59;8301529;28;20201;-64
2021/03/20 11:21:42;;;;;;;3.27;2.17;;;;;;;9.32;24.12;98868.34;8301131;28;20212;-63
2021/03/20 11:25:44;;;;;;;3.07;2.00;;;;;;;10.55;23.56;98872.81;8300850;28;20236;-63
2021/03/20 11:29:48;;;;;;;2.30;2.00;;;;;;;10.01;21.23;98863.09;8299703;28;20216;-65
2021/03/20 11:33:51;;;;;;;4.67;1.70;;;;;;;10.72;21.69;98847.22;8299901;28;20213;-64
2021/03/20 11:37:59;;;;;;;4.10;2.10;;;;;;;8.82;25.11;98847.16;8300424;28;20528;-63
2021/03/20 11:42:04;;;;;;;3.07;2.10;;;;;;;10.28;23.71;98846.78;8300650;28;20196;-63
2021/03/20 11:46:09;;;;;;;3.30;2.10;;;;;;;9.07;25.99;98843.09;8300265;28;20217;-63
2021/03/20 11:50:16;;;;;;;3.27;2.37;;;;;;;9.35;24.06;98845.00;8300088;28;20209;-62
2021/03/20 11:54:26;;;;;;;5.13;2.10;;;;;;;9.82;24.14;98839.47;8299870;28;20241;-63
2021/03/20 11:58:31;;;;;;;6.83;2.07;;;;;;;10.40;23.66;98840.44;8300050;28;20537;-66
2021/03/20 12:02:39;;;;;;;2.97;2.20;;;;;;;9.90;23.62;98837.50;8299547;28;20556;-63
2021/03/20 12:06:43;;;;;;;4.77;2.57;;;;;;;9.96;23.76;98827.00;8299854;28;20229;-64
2021/03/20 12:10:59;;;;;;;2.77;1.93;;;;;;;10.16;23.88;98824.66;8300039;28;20201;-64
2021/03/20 12:15:21;;;;;;;1.90;1.70;;;;;;;10.22;23.36;98830.56;8300027;28;20204;-64
2021/03/20 12:19:29;;;;;;;2.80;2.10;;;;;;;10.04;22.45;98813.84;8299985;28;20205;-64
2021/03/20 12:23:33;;;;;;;3.43;1.73;;;;;;;10.27;22.15;98808.84;8299014;28;20274;-64
2021/03/20 12:27:37;;;;;;;2.27;1.73;;;;;;;10.66;23.42;98808.56;8298060;28;20240;-64
2021/03/20 12:31:40;;;;;;;2.70;1.93;;;;;;;10.48;23.15;98802.19;8299064;28;20244;-63
2021/03/20 12:35:44;;;;;;;3.13;2.03;;;;;;;10.78;22.89;98807.31;8298204;28;20235;-64
2021/03/20 12:39:49;;;;;;;4.90;2.00;;;;;;;10.59;23.79;98807.06;8297983;28;20248;-63
2021/03/20 12:44:16;;;;;;;5.07;2.07;;;;;;;11.21;24.94;98798.13;8297328;28;20223;-64
2021/03/20 12:48:18;;;;;;;2.83;2.03;;;;;;;10.98;23.80;98795.47;8294615;28;20220;-64
2021/03/20 12:52:22;;;;;;;3.13;2.23;;;;;;;11.13;23.00;98785.44;8297502;28;20266;-65
2021/03/20 12:56:25;;;;;;;3.40;2.20;;;;;;;11.16;21.94;98789.69;8297804;28;20251;-64
2021/03/20 13:00:27;;;;;;;3.63;2.43;;;;;;;10.96;21.76;98779.97;8297757;28;20269;-64
2021/03/20 13:04:29;;;;;;;5.60;2.43;;;;;;;10.57;22.70;98788.13;8297733;28;20611;-64
2021/03/20 13:08:36;;;;;;;4.53;2.40;;;;;;;10.36;22.57;98781.88;8297883;28;20617;-64
2021/03/20 13:12:39;;;;;;;2.60;2.10;;;;;;;10.80;21.88;98769.25;8297732;28;20653;-64
2021/03/20 13:16:43;;;;;;;2.33;2.03;;;;;;;10.75;22.87;98777.16;8296818;28;20212;-64
2021/03/20 13:20:45;;;;;;;3.67;2.33;;;;;;;11.41;21.80;98784.50;8296223;28;20209;-64
2021/03/20 13:24:49;;;;;;;2.83;2.20;;;;;;;11.04;22.10;98784.88;8296740;28;20233;-64
2021/03/20 13:28:52;;;;;;;3.10;2.30;;;;;;;10.48;21.87;98781.47;8296009;28;20224;-64
2021/03/20 13:32:54;;;;;;;6.13;2.50;;;;;;;11.09;22.18;98770.03;8296948;28;20216;-64
2021/03/20 13:36:57;;;;;;;4.20;2.40;;;;;;;10.68;22.56;98780.00;8295968;28;20319;-64
2021/03/20 13:40:59;;;;;;;3.07;1.90;;;;;;;11.33;21.63;98778.75;8296710;28;20247;-63
2021/03/20 13:45:02;;;;;;;3.20;2.13;;;;;;;11.04;21.80;98767.63;8296786;28;20607;-63
2021/03/20 13:49:04;;;;;;;3.77;2.30;;;;;;;11.64;22.37;98764.69;8296316;28;20206;-64
2021/03/20 13:53:11;;;;;;;5.03;2.43;;;;;;;11.12;21.80;98760.41;8294980;28;20201;-63
2021/03/20 13:57:13;;;;;;;4.13;2.63;;;;;;;11.37;21.61;98746.59;8296025;28;20205;-63
2021/03/20 14:01:16;;;;;;;4.87;2.10;;;;;;;11.28;21.12;98759.88;8297102;28;20205;-63
2021/03/20 14:05:19;;;;;;;3.67;2.30;;;;;;;10.80;21.97;98760.66;8295918;28;20316;-63
2021/03/20 14:09:21;;;;;;;3.47;2.13;;;;;;;10.14;23.10;98759.16;8296592;28;20557;-63
2021/03/20 14:13:24;;;;;;;5.97;2.53;;;;;;;10.00;25.07;98766.50;8296970;28;20212;-65
2021/03/20 14:17:27;;;;;;;4.80;2.73;;;;;;;10.26;24.94;98747.63;8302594;28;20223;-65
2021/03/20 14:21:29;;;;;;;3.03;2.10;;;;;;;9.94;24.10;98762.34;8302285;28;20291;-64
2021/03/20 14:25:32;;;;;;;2.97;2.17;;;;;;;9.92;23.97;98758.97;8302013;28;20233;-63
2021/03/20 14:29:34;;;;;;;4.20;2.53;;;;;;;9.42;24.80;98745.69;8301524;28;20638;-65
2021/03/20 14:33:37;;;;;;;4.60;2.53;;;;;;;9.16;24.77;98744.69;8302246;28;20209;-65
2021/03/20 14:37:38;;;;;;;4.43;2.83;;;;;;;9.06;26.26;98748.38;8301323;28;20224;-65
2021/03/20 14:41:41;;;;;;;5.57;4.20;;;;;;;8.80;26.24;98741.28;8302717;28;20314;-65
2021/03/20 14:45:43;;;;;;;6.87;3.20;;;;;;;9.05;26.67;98743.25;8302266;28;20657;-65
2021/03/20 14:49:46;;;;;;;4.97;3.60;;;;;;;8.94;26.60;98738.34;8300721;28;20194;-63
2021/03/20 14:53:48;;;;;;;13.83;10.33;;;;;;;9.05;26.71;98735.50;8301424;28;20197;-65
2021/03/20 14:57:50;;;;;;;8.37;6.03;;;;;;;8.60;26.51;98737.47;8300198;28;20228;-65
2021/03/20 15:01:52;;;;;;;5.40;4.53;;;;;;;8.58;26.40;98743.53;8301569;28;20577;-65
2021/03/20 15:05:56;;;;;;;8.83;7.73;;;;;;;8.16;26.28;98739.28;8300819;28;20547;-65
2021/03/20 15:09:58;;;;;;;7.93;4.73;;;;;;;8.31;26.97;98739.84;8300234;28;20208;-65
2021/03/20 15:13:59;;;;;;;5.53;4.07;;;;;;;8.46;26.70;98736.94;8300413;28;20205;-65
2021/03/20 15:18:20;;;;;;;6.40;5.23;;;;;;;8.35;26.57;98744.88;8299490;28;20194;-65
2021/03/20 15:22:24;;;;;;;3.70;3.27;;;;;;;8.22;27.03;98733.16;8298815;28;20197;-65
2021/03/20 15:26:27;;;;;;;8.13;3.93;;;;;;;8.19;27.55;98740.97;8298857;28;20225;-65
2021/03/20 15:30:32;;;;;;;8.90;5.07;;;;;;;8.18;27.47;98740.09;8300238;28;20205;-65
2021/03/20 15:34:33;;;;;;;4.10;2.90;;;;;;;8.12;26.85;98739.41;8298958;28;20212;-66
2021/03/20 15:38:36;;;;;;;9.03;7.33;;;;;;;8.12;27.85;98729.09;8298887;28;20232;-68
2021/03/20 15:42:38;;;;;;;5.90;4.00;;;;;;;7.74;27.89;98723.88;8299510;28;20288;-66
2021/03/20 15:46:41;;;;;;;6.73;6.03;;;;;;;7.74;28.21;98721.28;8298847;28;20533;-65
2021/03/20 15:50:44;;;;;;;8.50;6.70;;;;;;;7.67;27.90;98726.59;8298508;28;20201;-66
2021/03/20 15:54:47;;;;;;;16.03;12.10;;;;;;;7.55;28.62;98719.97;8299347;28;20571;-65
2021/03/20 15:58:52;;;;;;;7.40;4.27;;;;;;;7.60;28.45;98729.31;8299055;28;20197;-65
2021/03/20 16:02:54;;;;;;;5.43;4.03;;;;;;;7.50;28.13;98730.38;8298936;28;20213;-65
2021/03/20 16:06:57;;;;;;;5.37;3.60;;;;;;;7.55;29.17;98730.28;8297537;28;20217;-65
2021/03/20 16:11:00;;;;;;;5.93;4.40;;;;;;;7.34;27.45;98727.22;8297935;28;20220;-65
2021/03/20 16:15:03;;;;;;;5.27;4.03;;;;;;;6.91;28.73;98737.47;8297316;28;20240;-65
2021/03/20 16:19:05;;;;;;;5.63;3.90;;;;;;;7.31;28.43;98729.91;8296925;28;20204;-66
2021/03/20 16:23:09;;;;;;;5.30;3.87;;;;;;;7.18;28.05;98733.56;8297631;28;20201;-65
2021/03/20 16:27:13;;;;;;;5.23;3.10;;;;;;;7.15;27.50;98718.16;8298066;28;20236;-65
2021/03/20 16:31:19;;;;;;;4.60;3.70;;;;;;;7.28;28.13;98718.78;8297316;28;20201;-65
2021/03/20 16:35:21;;;;;;;4.77;3.53;;;;;;;7.30;28.33;98727.34;8297224;28;20578;-65
2021/03/20 16:39:23;;;;;;;6.63;3.20;;;;;;;7.00;27.89;98716.72;8297209;28;20225;-65
2021/03/20 16:43:46;;;;;;;4.00;2.90;;;;;;;7.16;28.06;98713.00;8314667;28;20196;-65
2021/03/20 16:47:49;;;;;;;4.63;3.10;;;;;;;7.10;28.64;98712.22;8308169;28;20212;-65
2021/03/20 16:51:51;;;;;;;4.17;3.10;;;;;;;6.78;28.88;98721.41;8321863;28;20212;-65
2021/03/20 16:55:53;;;;;;;6.43;3.20;;;;;;;6.90;28.95;98718.59;8330531;28;20573;-64
2021/03/20 16:59:56;;;;;;;5.13;3.83;;;;;;;6.71;28.66;98714.66;8310100;28;20299;-65
2021/03/20 17:03:58;;;;;;;5.83;3.33;;;;;;;6.62;28.47;98710.50;8298358;28;20216;-64
2021/03/20 17:08:00;;;;;;;5.97;3.53;;;;;;;6.82;28.70;98713.59;8315896;28;20248;-65
2021/03/20 17:12:02;;;;;;;5.30;3.60;;;;;;;6.87;28.48;98717.81;8312065;28;20197;-65
2021/03/20 17:16:06;;;;;;;3.63;3.00;;;;;;;6.42;28.20;98721.13;8303821;28;20490;-65
2021/03/20 17:20:11;;;;;;;6.80;3.10;;;;;;;6.75;28.83;98718.88;8328620;28;20207;-64
2021/03/20 17:24:13;;;;;;;8.40;3.40;;;;;;;6.70;29.03;98713.81;8330333;28;20212;-64
2021/03/20 17:28:16;;;;;;;5.63;3.30;;;;;;;6.57;29.01;98714.88;8330028;28;20239;-64
2021/03/20 17:32:19;;;;;;;5.20;3.33;;;;;;;6.61;29.09;98707.06;8330086;28;20200;-65
2021/03/20 17:36:21;;;;;;;5.40;3.80;;;;;;;6.61;28.93;98706.22;8329316;28;20219;-65
2021/03/20 17:40:25;;;;;;;9.87;4.60;;;;;;;6.70;29.63;98713.81;8329097;28;20228;-65
2021/03/20 17:44:27;;;;;;;7.13;4.53;;;;;;;6.71;29.43;98712.06;8330533;28;20205;-65
2021/03/20 17:48:30;;;;;;;6.30;4.17;;;;;;;6.65;29.93;98710.44;8331977;28;20208;-65
2021/03/20 17:52:32;;;;;;;5.57;3.50;;;;;;;6.53;29.56;98701.22;8335334;28;20236;-65
2021/03/20 17:56:34;;;;;;;5.93;3.40;;;;;;;6.51;29.55;98691.81;8336819;28;20209;-65
2021/03/20 18:00:38;;;;;;;8.53;3.67;;;;;;;6.55;29.61;98696.03;8335659;28;20590;-65
2021/03/20 18:04:41;;;;;;;4.33;3.47;;;;;;;6.53;29.29;98698.66;8336028;28;20602;-64
2021/03/20 18:08:47;;;;;;;6.47;3.97;;;;;;;6.47;29.23;98698.72;8335399;28;20621;-65
2021/03/20 18:12:49;;;;;;;4.70;3.67;;;;;;;6.59;29.10;98695.13;8335104;28;20266;-64
2021/03/20 18:16:51;;;;;;;4.23;3.43;;;;;;;6.39;29.50;98693.69;8335659;28;20216;-64
2021/03/20 18:20:58;;;;;;;5.27;4.17;;;;;;;6.38;29.57;98693.75;8335436;28;20204;-64
2021/03/20 18:25:00;;;;;;;7.87;6.43;;;;;;;6.30;29.28;98686.13;8335301;28;20255;-64
2021/03/20 18:29:01;;;;;;;13.23;6.50;;;;;;;6.45;30.62;98685.03;8333782;28;20212;-64
2021/03/20 18:33:04;;;;;;;6.03;3.80;;;;;;;6.50;29.78;98683.25;8334431;28;20216;-64
2021/03/20 18:37:08;;;;;;;4.40;3.10;;;;;;;6.37;29.80;98676.59;8333598;28;20394;-64
2021/03/20 18:41:12;;;;;;;6.53;4.67;;;;;;;6.28;29.42;98679.31;8334534;28;20587;-64
2021/03/20 18:45:15;;;;;;;7.20;4.97;;;;;;;6.35;28.91;98676.63;8333936;28;20245;-64
2021/03/20 18:49:17;;;;;;;5.33;3.47;;;;;;;6.38;28.96;98675.72;8334499;28;20216;-64
2021/03/20 18:53:20;;;;;;;8.03;5.73;;;;;;;6.48;28.77;98679.00;8333973;28;20223;-64
2021/03/20 18:57:22;;;;;;;5.83;3.90;;;;;;;6.41;29.84;98673.94;8334404;28;20597;-64
2021/03/20 19:01:24;;;;;;;16.20;14.10;;;;;;;6.42;30.14;98678.22;8333633;28;20211;-64
2021/03/20 19:05:26;;;;;;;13.77;12.23;;;;;;;6.39;29.73;98677.41;8332660;28;20665;-64
2021/03/20 19:09:29;;;;;;;8.40;7.07;;;;;;;6.49;30.02;98672.97;8332446;28;20209;-64
2021/03/20 19:13:31;;;;;;;19.37;12.33;;;;;;;6.32;29.76;98679.25;8333117;28;20224;-64
2021/03/20 19:17:32;;;;;;;8.27;5.23;;;;;;;6.42;30.12;98677.38;8333217;28;20613;-64
2021/03/20 19:21:35;;;;;;;7.67;4.40;;;;;;;6.32;30.12;98671.53;8332051;28;20220;-64
2021/03/20 19:25:37;;;;;;;5.63;4.47;;;;;;;6.42;29.51;98669.66;8332244;28;20224;-64
2021/03/20 19:29:39;;;;;;;7.10;5.60;;;;;;;6.36;30.22;98668.03;8334009;28;20216;-64